createdAt,value
2018-08-19T00:00:15.199Z,8.70
2018-08-19T00:01:15.176Z,6.90
2018-08-19T00:02:15.167Z,7.40
2018-08-19T00:03:15.201Z,6.80
2018-08-19T00:04:15.141Z,8.90
2018-08-19T00:05:15.135Z,8.40
2018-08-19T00:06:15.131Z,6.30
2018-08-19T00:07:15.113Z,7.50
2018-08-19T00:08:15.163Z,9.80
2018-08-19T00:09:15.099Z,8.50
2018-08-19T00:10:15.084Z,8.70
2018-08-19T00:11:15.085Z,6.80
2018-08-19T00:12:15.072Z,6.50
2018-08-19T00:13:15.091Z,9.20
2018-08-19T00:14:15.072Z,8.40
2018-08-19T00:15:15.029Z,7.80
2018-08-19T00:16:15.017Z,8.30
2018-08-19T00:17:15.008Z,6.80
2018-08-19T00:18:14.991Z,7.80
2018-08-19T00:19:15.024Z,7.60
2018-08-19T00:20:15.002Z,9.30
2018-08-19T00:21:14.964Z,8.00
2018-08-19T00:22:14.947Z,7.40
2018-08-19T00:23:14.939Z,9.40
2018-08-19T00:24:14.963Z,9.50
2018-08-19T00:25:14.919Z,8.10
2018-08-19T00:26:14.909Z,7.20
2018-08-19T00:27:14.892Z,9.00
2018-08-19T00:28:14.935Z,7.70
2018-08-19T00:29:14.880Z,9.50
2018-08-19T00:30:14.855Z,7.50
2018-08-19T00:31:14.859Z,9.60
2018-08-19T00:32:14.835Z,11.50
2018-08-19T00:33:14.853Z,9.90
2018-08-19T00:34:14.857Z,10.30
2018-08-19T00:35:14.803Z,7.60
2018-08-19T00:36:14.797Z,5.30
2018-08-19T00:37:14.778Z,9.70
2018-08-19T00:38:14.811Z,7.90
2018-08-19T00:39:14.795Z,6.70
2018-08-19T00:40:14.742Z,7.20
2018-08-19T00:41:14.733Z,6.90
2018-08-19T00:42:14.723Z,9.40
2018-08-19T00:43:14.705Z,7.30
2018-08-19T00:44:14.722Z,6.90
2018-08-19T00:45:14.687Z,7.70
2018-08-19T00:46:14.676Z,7.60
2018-08-19T00:47:14.660Z,9.00
2018-08-19T00:48:14.687Z,8.50
2018-08-19T00:49:14.672Z,9.50
2018-08-19T00:50:14.625Z,7.90
2018-08-19T00:51:14.619Z,8.40
2018-08-19T00:52:14.623Z,8.20
2018-08-19T00:53:23.604Z,8.00
2018-08-19T00:54:14.611Z,6.90
2018-08-19T00:55:14.568Z,8.00
2018-08-19T00:56:23.671Z,7.50
2018-08-19T00:57:14.545Z,7.40
2018-08-19T00:58:14.539Z,7.60
2018-08-19T00:59:14.525Z,7.20
2018-08-19T01:00:14.519Z,8.70
2018-08-19T01:01:14.547Z,6.40
2018-08-19T01:02:22.167Z,8.40
2018-08-19T01:03:14.487Z,8.50
2018-08-19T01:04:14.478Z,8.40
2018-08-19T01:05:22.200Z,8.00
2018-08-19T01:06:14.508Z,6.70
2018-08-19T01:07:14.445Z,9.00
2018-08-19T01:08:14.433Z,7.30
2018-08-19T01:09:14.430Z,8.00
2018-08-19T01:10:14.415Z,8.00
2018-08-19T01:11:14.448Z,8.70
2018-08-19T01:12:14.385Z,6.90
2018-08-19T01:13:14.384Z,8.10
2018-08-19T01:14:14.367Z,9.10
2018-08-19T01:15:14.358Z,8.30
2018-08-19T01:16:14.391Z,12.10
2018-08-19T01:17:22.234Z,10.40
2018-08-19T01:18:14.325Z,9.40
2018-08-19T01:19:14.308Z,8.60
2018-08-19T01:20:22.272Z,7.50
2018-08-19T01:21:14.312Z,8.60
2018-08-19T01:22:14.320Z,11.70
2018-08-19T01:23:14.264Z,11.30
2018-08-19T01:24:14.252Z,10.30
2018-08-19T01:25:14.244Z,8.00
2018-08-19T01:26:14.229Z,9.00
2018-08-19T01:27:14.254Z,8.20
2018-08-19T01:28:14.240Z,10.90
2018-08-19T01:29:14.205Z,8.10
2018-08-19T01:30:14.180Z,11.70
2018-08-19T01:31:14.188Z,9.80
2018-08-19T01:32:14.151Z,9.30
2018-08-19T01:33:14.196Z,11.50
2018-08-19T01:34:14.131Z,11.40
2018-08-19T01:35:14.119Z,9.20
2018-08-19T01:36:14.109Z,9.50
2018-08-19T01:37:14.099Z,11.60
2018-08-19T01:38:14.130Z,9.60
2018-08-19T01:39:14.083Z,11.50
2018-08-19T01:40:14.059Z,9.80
2018-08-19T01:41:14.045Z,8.80
2018-08-19T01:42:14.044Z,10.60
2018-08-19T01:43:14.052Z,9.80
2018-08-19T01:44:14.061Z,9.40
2018-08-19T01:45:14.005Z,10.00
2018-08-19T01:46:14.029Z,8.90
2018-08-19T01:47:13.983Z,10.50
2018-08-19T01:48:13.981Z,11.60
2018-08-19T01:49:13.989Z,8.90
2018-08-19T01:50:13.961Z,8.00
2018-08-19T01:51:13.945Z,7.90
2018-08-19T01:52:13.929Z,11.60
2018-08-19T01:53:13.915Z,8.80
2018-08-19T01:54:13.935Z,8.60
2018-08-19T01:55:13.891Z,8.80
2018-08-19T01:56:23.324Z,7.60
2018-08-19T01:57:13.875Z,9.70
2018-08-19T01:58:13.863Z,8.30
2018-08-19T01:59:13.853Z,8.00
2018-08-19T02:00:13.869Z,7.80
2018-08-19T02:01:13.832Z,8.20
2018-08-19T02:02:13.824Z,7.70
2018-08-19T02:03:13.809Z,8.40
2018-08-19T02:04:13.807Z,8.80
2018-08-19T02:05:22.853Z,12.60
2018-08-19T02:06:13.777Z,9.90
2018-08-19T02:07:13.767Z,9.70
2018-08-19T02:08:21.365Z,9.00
2018-08-19T02:09:13.743Z,9.50
2018-08-19T02:10:13.734Z,7.30
2018-08-19T02:11:23.906Z,10.20
2018-08-19T02:12:13.714Z,8.70
2018-08-19T02:13:13.710Z,8.60
2018-08-19T02:14:21.426Z,9.30
2018-08-19T02:15:13.678Z,6.70
2018-08-19T02:16:13.697Z,7.50
2018-08-19T02:17:21.469Z,8.60
2018-08-19T02:18:13.646Z,10.00
2018-08-19T02:19:13.632Z,7.80
2018-08-19T02:20:13.622Z,8.60
2018-08-19T02:21:13.644Z,8.70
2018-08-19T02:22:13.597Z,10.40
2018-08-19T02:23:21.483Z,9.60
2018-08-19T02:24:13.573Z,8.50
2018-08-19T02:25:13.554Z,8.40
2018-08-19T02:26:23.041Z,9.40
2018-08-19T02:27:13.539Z,9.40
2018-08-19T02:28:13.517Z,9.80
2018-08-19T02:29:22.060Z,8.70
2018-08-19T02:30:13.501Z,9.30
2018-08-19T02:31:13.517Z,7.50
2018-08-19T02:32:21.099Z,9.60
2018-08-19T02:33:13.474Z,8.60
2018-08-19T02:34:13.453Z,10.60
2018-08-19T02:35:21.131Z,9.90
2018-08-19T02:36:13.481Z,10.70
2018-08-19T02:37:13.419Z,11.50
2018-08-19T02:38:21.171Z,9.90
2018-08-19T02:39:13.401Z,9.10
2018-08-19T02:40:13.387Z,9.20
2018-08-19T02:41:13.403Z,12.70
2018-08-19T02:42:13.374Z,9.60
2018-08-19T02:43:13.355Z,10.90
2018-08-19T02:44:21.223Z,10.70
2018-08-19T02:45:13.336Z,12.70
2018-08-19T02:46:13.368Z,11.20
2018-08-19T02:47:22.260Z,10.50
2018-08-19T02:48:13.320Z,9.70
2018-08-19T02:49:13.294Z,15.30
2018-08-19T02:50:13.293Z,10.90
2018-08-19T02:51:13.303Z,11.40
2018-08-19T02:52:13.266Z,12.30
2018-08-19T02:53:20.785Z,13.20
2018-08-19T02:54:13.241Z,11.20
2018-08-19T02:55:13.229Z,15.20
2018-08-19T02:56:22.330Z,12.60
2018-08-19T02:57:13.207Z,13.30
2018-08-19T02:58:13.194Z,11.60
2018-08-19T02:59:13.183Z,13.90
2018-08-19T03:00:13.173Z,16.10
2018-08-19T03:01:13.161Z,13.70
2018-08-19T03:02:22.364Z,11.10
2018-08-19T03:03:13.147Z,13.00
2018-08-19T03:04:13.129Z,11.90
2018-08-19T03:05:20.863Z,13.70
2018-08-19T03:06:13.100Z,15.10
2018-08-19T03:07:13.116Z,13.00
2018-08-19T03:08:22.409Z,13.50
2018-08-19T03:09:13.094Z,14.40
2018-08-19T03:10:13.093Z,12.80
2018-08-19T03:11:20.921Z,15.50
2018-08-19T03:12:13.034Z,11.80
2018-08-19T03:13:13.020Z,13.00
2018-08-19T03:14:22.505Z,13.80
2018-08-19T03:15:13.040Z,13.50
2018-08-19T03:16:12.989Z,13.10
2018-08-19T03:17:13.013Z,15.30
2018-08-19T03:18:12.970Z,12.80
2018-08-19T03:19:12.995Z,13.80
2018-08-19T03:20:12.950Z,13.50
2018-08-19T03:21:12.931Z,14.50
2018-08-19T03:22:12.981Z,13.80
2018-08-19T03:23:12.915Z,11.50
2018-08-19T03:24:12.895Z,14.10
2018-08-19T03:25:12.895Z,14.00
2018-08-19T03:26:12.880Z,13.40
2018-08-19T03:27:12.921Z,11.50
2018-08-19T03:28:12.853Z,11.10
2018-08-19T03:29:12.858Z,12.20
2018-08-19T03:30:12.823Z,12.20
2018-08-19T03:31:12.824Z,13.60
2018-08-19T03:32:12.851Z,13.40
2018-08-19T03:33:12.792Z,13.50
2018-08-19T03:34:12.783Z,13.20
2018-08-19T03:35:12.775Z,13.40
2018-08-19T03:36:12.757Z,12.20
2018-08-19T03:37:12.789Z,12.30
2018-08-19T03:38:12.774Z,11.00
2018-08-19T03:39:12.737Z,13.00
2018-08-19T03:40:12.717Z,13.60
2018-08-19T03:41:12.701Z,11.80
2018-08-19T03:42:12.693Z,12.60
2018-08-19T03:43:12.713Z,15.30
2018-08-19T03:44:12.715Z,13.20
2018-08-19T03:45:12.658Z,11.70
2018-08-19T03:46:12.653Z,16.00
2018-08-19T03:47:12.639Z,12.60
2018-08-19T03:48:12.621Z,12.40
2018-08-19T03:49:12.653Z,15.20
2018-08-19T03:50:12.604Z,12.90
2018-08-19T03:51:12.594Z,13.40
2018-08-19T03:52:12.589Z,12.80
2018-08-19T03:53:12.569Z,15.10
2018-08-19T03:54:12.603Z,12.30
2018-08-19T03:55:12.547Z,15.00
2018-08-19T03:56:12.539Z,15.90
2018-08-19T03:57:12.535Z,14.80
2018-08-19T03:58:12.510Z,12.00
2018-08-19T03:59:12.557Z,14.10
2018-08-19T04:00:12.487Z,13.80
2018-08-19T04:01:12.487Z,16.30
2018-08-19T04:02:12.480Z,13.90
2018-08-19T04:03:12.468Z,15.10
2018-08-19T04:04:12.500Z,14.70
2018-08-19T04:05:12.499Z,14.80
2018-08-19T04:06:12.433Z,16.90
2018-08-19T04:07:12.423Z,14.00
2018-08-19T04:08:12.415Z,15.60
2018-08-19T04:09:12.405Z,14.90
2018-08-19T04:10:12.427Z,16.20
2018-08-19T04:11:12.378Z,16.50
2018-08-19T04:12:12.369Z,16.00
2018-08-19T04:13:12.359Z,14.50
2018-08-19T04:14:12.351Z,17.00
2018-08-19T04:15:12.382Z,15.00
2018-08-19T04:16:12.323Z,16.40
2018-08-19T04:17:12.317Z,12.90
2018-08-19T04:18:12.310Z,12.60
2018-08-19T04:19:12.287Z,14.60
2018-08-19T04:20:12.319Z,13.20
2018-08-19T04:21:12.263Z,16.50
2018-08-19T04:22:12.295Z,13.00
2018-08-19T04:23:12.243Z,15.70
2018-08-19T04:24:12.265Z,13.60
2018-08-19T04:25:12.229Z,15.30
2018-08-19T04:26:12.255Z,15.60
2018-08-19T04:27:12.199Z,15.00
2018-08-19T04:28:12.189Z,17.00
2018-08-19T04:29:12.179Z,15.40
2018-08-19T04:30:12.167Z,16.40
2018-08-19T04:31:12.205Z,18.80
2018-08-19T04:32:12.139Z,13.30
2018-08-19T04:33:12.126Z,15.50
2018-08-19T04:34:12.116Z,17.00
2018-08-19T04:35:12.109Z,18.00
2018-08-19T04:36:12.149Z,17.20
2018-08-19T04:37:12.087Z,20.00
2018-08-19T04:38:12.065Z,15.30
2018-08-19T04:39:12.065Z,20.40
2018-08-19T04:40:12.048Z,19.00
2018-08-19T04:41:12.073Z,18.10
2018-08-19T04:42:12.092Z,20.90
2018-08-19T04:43:12.011Z,18.40
2018-08-19T04:44:12.009Z,16.60
2018-08-19T04:45:11.991Z,17.10
2018-08-19T04:46:11.982Z,16.90
2018-08-19T04:47:12.013Z,18.00
2018-08-19T04:48:11.960Z,19.90
2018-08-19T04:49:11.949Z,19.00
2018-08-19T04:50:11.938Z,15.50
2018-08-19T04:51:11.926Z,19.70
2018-08-19T04:52:12.002Z,19.70
2018-08-19T04:53:11.907Z,17.40
2018-08-19T04:54:11.893Z,17.10
2018-08-19T04:55:11.884Z,19.30
2018-08-19T04:56:11.870Z,19.30
2018-08-19T04:57:11.899Z,20.40
2018-08-19T04:58:11.885Z,15.60
2018-08-19T04:59:11.848Z,19.60
2018-08-19T05:00:11.823Z,18.30
2018-08-19T05:01:11.831Z,22.80
2018-08-19T05:02:11.878Z,19.10
2018-08-19T05:03:11.832Z,19.70
2018-08-19T05:04:11.778Z,18.90
2018-08-19T05:05:11.790Z,20.30
2018-08-19T05:06:11.781Z,18.60
2018-08-19T05:07:11.759Z,16.00
2018-08-19T05:08:25.186Z,20.10
2018-08-19T05:09:11.737Z,18.40
2018-08-19T05:10:11.723Z,17.60
2018-08-19T05:11:11.715Z,17.40
2018-08-19T05:12:11.697Z,16.00
2018-08-19T05:13:11.743Z,19.80
2018-08-19T05:14:19.557Z,19.30
2018-08-19T05:15:11.673Z,22.00
2018-08-19T05:16:11.661Z,19.90
2018-08-19T05:17:11.653Z,23.50
2018-08-19T05:18:11.667Z,19.60
2018-08-19T05:19:11.625Z,17.40
2018-08-19T05:20:11.607Z,18.90
2018-08-19T05:21:11.599Z,19.80
2018-08-19T05:22:11.597Z,19.20
2018-08-19T05:23:11.624Z,22.00
2018-08-19T05:24:11.567Z,17.50
2018-08-19T05:25:11.553Z,20.70
2018-08-19T05:26:11.554Z,22.50
2018-08-19T05:27:11.530Z,20.60
2018-08-19T05:28:11.582Z,24.40
2018-08-19T05:29:11.545Z,20.30
2018-08-19T05:30:11.495Z,21.60
2018-08-19T05:31:11.487Z,18.70
2018-08-19T05:32:19.577Z,23.00
2018-08-19T05:33:11.458Z,20.60
2018-08-19T05:34:11.481Z,18.30
2018-08-19T05:35:11.459Z,19.50
2018-08-19T05:36:11.418Z,20.70
2018-08-19T05:37:11.452Z,20.70
2018-08-19T05:38:19.107Z,18.20
2018-08-19T05:39:11.384Z,21.60
2018-08-19T05:40:11.382Z,18.80
2018-08-19T05:41:11.361Z,22.60
2018-08-19T05:42:11.387Z,22.50
2018-08-19T05:43:11.343Z,19.80
2018-08-19T05:44:19.145Z,19.20
2018-08-19T05:45:11.378Z,21.20
2018-08-19T05:46:11.312Z,18.90
2018-08-19T05:47:11.338Z,21.00
2018-08-19T05:48:11.285Z,18.90
2018-08-19T05:49:11.272Z,21.60
2018-08-19T05:50:20.691Z,16.90
2018-08-19T05:51:11.277Z,18.70
2018-08-19T05:52:11.242Z,18.20
2018-08-19T05:53:19.224Z,22.40
2018-08-19T05:54:11.253Z,20.70
2018-08-19T05:55:11.215Z,20.40
2018-08-19T05:56:20.281Z,21.20
2018-08-19T05:57:11.190Z,21.10
2018-08-19T05:58:11.185Z,19.00
2018-08-19T05:59:20.315Z,16.40
2018-08-19T06:00:11.162Z,21.90
2018-08-19T06:01:11.206Z,19.50
2018-08-19T06:02:18.832Z,25.50
2018-08-19T06:03:11.128Z,18.50
2018-08-19T06:04:11.219Z,20.00
2018-08-19T06:05:18.861Z,21.80
2018-08-19T06:06:11.096Z,19.90
2018-08-19T06:07:11.085Z,16.90
2018-08-19T06:08:18.903Z,19.50
2018-08-19T06:09:11.091Z,19.60
2018-08-19T06:10:11.046Z,23.40
2018-08-19T06:11:18.052Z,22.90
2018-08-19T06:12:11.021Z,19.10
2018-08-19T06:13:11.013Z,22.30
2018-08-19T06:14:20.487Z,18.60
2018-08-19T06:15:10.987Z,21.40
2018-08-19T06:16:10.971Z,18.30
2018-08-19T06:17:10.956Z,20.30
2018-08-19T06:18:10.950Z,24.10
2018-08-19T06:19:10.978Z,20.00
2018-08-19T06:20:10.922Z,22.60
2018-08-19T06:21:10.912Z,22.20
2018-08-19T06:22:10.910Z,17.30
2018-08-19T06:23:10.915Z,22.70
2018-08-19T06:24:10.929Z,20.40
2018-08-19T06:25:10.877Z,18.90
2018-08-19T06:26:10.863Z,20.20
2018-08-19T06:27:10.845Z,17.20
2018-08-19T06:28:10.838Z,20.50
2018-08-19T06:29:10.843Z,21.00
2018-08-19T06:30:10.808Z,17.10
2018-08-19T06:31:10.904Z,22.90
2018-08-19T06:32:10.797Z,18.50
2018-08-19T06:33:10.783Z,19.10
2018-08-19T06:34:10.807Z,17.00
2018-08-19T06:35:10.768Z,16.60
2018-08-19T06:36:10.759Z,19.90
2018-08-19T06:37:10.733Z,17.10
2018-08-19T06:38:10.721Z,15.00
2018-08-19T06:39:10.743Z,14.60
2018-08-19T06:40:10.698Z,14.30
2018-08-19T06:41:10.695Z,16.90
2018-08-19T06:42:10.682Z,15.40
2018-08-19T06:43:10.759Z,14.60
2018-08-19T06:44:10.693Z,15.10
2018-08-19T06:45:10.703Z,15.00
2018-08-19T06:46:10.643Z,14.30
2018-08-19T06:47:10.625Z,17.90
2018-08-19T06:48:10.621Z,14.30
2018-08-19T06:49:10.609Z,14.10
2018-08-19T06:50:10.629Z,12.90
2018-08-19T06:51:10.616Z,13.00
2018-08-19T06:52:10.581Z,14.60
2018-08-19T06:53:10.569Z,13.90
2018-08-19T06:54:10.557Z,13.70
2018-08-19T06:55:10.579Z,11.30
2018-08-19T06:56:10.561Z,10.90
2018-08-19T06:57:10.531Z,12.40
2018-08-19T06:58:10.517Z,10.00
2018-08-19T06:59:10.505Z,7.40
2018-08-19T07:00:10.500Z,10.20
2018-08-19T07:01:10.501Z,8.70
2018-08-19T07:02:10.461Z,7.70
2018-08-19T07:03:10.497Z,6.80
2018-08-19T07:04:10.437Z,6.80
2018-08-19T07:05:19.993Z,7.30
2018-08-19T07:06:10.446Z,7.00
2018-08-19T07:07:10.397Z,7.60
2018-08-19T07:08:18.022Z,8.30
2018-08-19T07:09:10.385Z,7.60
2018-08-19T07:10:10.371Z,7.90
2018-08-19T07:11:19.609Z,8.30
2018-08-19T07:12:10.360Z,7.60
2018-08-19T07:13:10.344Z,8.90
2018-08-19T07:14:18.122Z,7.00
2018-08-19T07:15:10.355Z,7.00
2018-08-19T07:16:10.349Z,6.80
2018-08-19T07:17:10.309Z,5.60
2018-08-19T07:18:10.301Z,8.30
2018-08-19T07:19:10.280Z,6.60
2018-08-19T07:20:10.270Z,7.70
2018-08-19T07:21:10.300Z,6.70
2018-08-19T07:22:10.242Z,10.70
2018-08-19T07:23:10.235Z,7.00
2018-08-19T07:24:10.251Z,7.70
2018-08-19T07:25:10.205Z,8.20
2018-08-19T07:26:19.755Z,8.20
2018-08-19T07:27:10.190Z,5.90
2018-08-19T07:28:10.183Z,5.70
2018-08-19T07:29:10.160Z,5.80
2018-08-19T07:30:10.160Z,5.60
2018-08-19T07:31:10.143Z,5.40
2018-08-19T07:32:10.160Z,7.80
2018-08-19T07:33:10.125Z,6.30
2018-08-19T07:34:10.113Z,8.40
2018-08-19T07:35:10.105Z,8.80
2018-08-19T07:36:10.091Z,7.00
2018-08-19T07:37:10.225Z,6.80
2018-08-19T07:38:10.074Z,5.20
2018-08-19T07:39:10.051Z,5.70
2018-08-19T07:40:10.057Z,6.90
2018-08-19T07:41:10.023Z,6.40
2018-08-19T07:42:10.091Z,5.80
2018-08-19T07:43:10.007Z,5.00
2018-08-19T07:44:10.011Z,6.80
2018-08-19T07:45:09.993Z,6.70
2018-08-19T07:46:10.015Z,8.30
2018-08-19T07:47:10.005Z,8.40
2018-08-19T07:48:09.950Z,6.40
2018-08-19T07:49:09.951Z,6.80
2018-08-19T07:50:18.676Z,9.40
2018-08-19T07:51:09.926Z,5.20
2018-08-19T07:52:09.961Z,6.50
2018-08-19T07:53:09.888Z,6.30
2018-08-19T07:54:09.900Z,6.60
2018-08-19T07:55:09.879Z,5.50
2018-08-19T07:56:17.711Z,5.20
2018-08-19T07:57:09.883Z,5.70
2018-08-19T07:58:09.833Z,7.40
2018-08-19T07:59:09.822Z,7.20
2018-08-19T08:00:09.820Z,5.50
2018-08-19T08:01:09.806Z,6.20
2018-08-19T08:02:09.877Z,6.80
2018-08-19T08:03:09.828Z,5.80
2018-08-19T08:04:09.808Z,4.90
2018-08-19T08:05:09.762Z,6.40
2018-08-19T08:06:09.750Z,4.90
2018-08-19T08:07:09.755Z,5.10
2018-08-19T08:08:09.784Z,4.60
2018-08-19T08:09:09.750Z,6.10
2018-08-19T08:10:09.707Z,6.90
2018-08-19T08:11:09.696Z,4.10
2018-08-19T08:12:09.695Z,4.30
2018-08-19T08:13:09.711Z,5.30
2018-08-19T08:14:09.671Z,4.70
2018-08-19T08:15:09.923Z,4.50
2018-08-19T08:16:09.650Z,6.10
2018-08-19T08:17:09.641Z,4.80
2018-08-19T08:18:09.710Z,4.90
2018-08-19T08:19:09.612Z,5.00
2018-08-19T08:20:09.606Z,6.20
2018-08-19T08:21:09.663Z,6.10
2018-08-19T08:22:09.583Z,6.90
2018-08-19T08:23:09.605Z,4.20
2018-08-19T08:24:09.569Z,6.60
2018-08-19T08:25:09.545Z,5.90
2018-08-19T08:26:09.536Z,4.70
2018-08-19T08:27:09.527Z,4.20
2018-08-19T08:28:09.553Z,5.60
2018-08-19T08:29:09.569Z,5.70
2018-08-19T08:30:09.491Z,5.80
2018-08-19T08:31:09.509Z,4.50
2018-08-19T08:32:09.483Z,4.20
2018-08-19T08:33:09.498Z,4.90
2018-08-19T08:34:09.503Z,4.60
2018-08-19T08:35:09.443Z,5.90
2018-08-19T08:36:09.439Z,6.10
2018-08-19T08:37:09.410Z,5.50
2018-08-19T08:38:09.434Z,5.40
2018-08-19T08:39:09.430Z,4.30
2018-08-19T08:40:09.369Z,5.00
2018-08-19T08:41:09.356Z,5.10
2018-08-19T08:42:09.406Z,4.70
2018-08-19T08:43:09.337Z,5.60
2018-08-19T08:44:09.395Z,4.60
2018-08-19T08:45:09.310Z,6.30
2018-08-19T08:46:09.306Z,4.10
2018-08-19T08:47:09.305Z,6.20
2018-08-19T08:48:09.289Z,5.40
2018-08-19T08:49:09.306Z,5.00
2018-08-19T08:50:09.264Z,7.00
2018-08-19T08:51:09.249Z,4.50
2018-08-19T08:52:09.305Z,4.90
2018-08-19T08:53:09.253Z,6.10
2018-08-19T08:54:09.248Z,4.90
2018-08-19T08:55:09.251Z,6.70
2018-08-19T08:56:09.205Z,5.00
2018-08-19T08:57:09.215Z,6.50
2018-08-19T08:58:09.191Z,5.80
2018-08-19T08:59:09.278Z,7.40
2018-08-19T09:00:09.173Z,3.80
2018-08-19T09:01:09.140Z,6.30
2018-08-19T09:02:09.137Z,5.20
2018-08-19T09:03:09.139Z,7.60
2018-08-19T09:04:09.181Z,6.80
2018-08-19T09:05:09.158Z,5.00
2018-08-19T09:06:09.125Z,6.00
2018-08-19T09:07:09.135Z,4.90
2018-08-19T09:08:09.111Z,5.80
2018-08-19T09:09:09.072Z,5.20
2018-08-19T09:10:09.089Z,4.90
2018-08-19T09:11:09.035Z,4.50
2018-08-19T09:12:09.089Z,6.80
2018-08-19T09:13:09.028Z,6.80
2018-08-19T09:14:09.051Z,4.10
2018-08-19T09:15:08.997Z,5.10
2018-08-19T09:16:09.007Z,4.30
2018-08-19T09:17:08.971Z,3.70
2018-08-19T09:18:08.967Z,5.40
2018-08-19T09:19:08.933Z,3.90
2018-08-19T09:20:09.066Z,3.80
2018-08-19T09:21:08.999Z,5.60
2018-08-19T09:22:16.741Z,5.00
2018-08-19T09:23:09.073Z,4.80
2018-08-19T09:24:08.916Z,5.20
2018-08-19T09:25:08.874Z,5.60
2018-08-19T09:26:08.901Z,5.00
2018-08-19T09:27:08.863Z,4.50
2018-08-19T09:28:08.838Z,4.70
2018-08-19T09:29:08.909Z,5.40
2018-08-19T09:30:08.845Z,5.40
2018-08-19T09:31:16.771Z,5.70
2018-08-19T09:32:08.795Z,5.20
2018-08-19T09:33:08.785Z,4.90
2018-08-19T09:34:08.811Z,4.60
2018-08-19T09:35:08.769Z,4.40
2018-08-19T09:36:08.790Z,4.50
2018-08-19T09:37:08.744Z,5.10
2018-08-19T09:38:08.747Z,5.80
2018-08-19T09:39:08.745Z,4.80
2018-08-19T09:40:08.757Z,5.60
2018-08-19T09:41:08.723Z,5.90
2018-08-19T09:42:08.721Z,4.30
2018-08-19T09:43:08.704Z,6.40
2018-08-19T09:44:08.678Z,4.50
2018-08-19T09:45:08.723Z,5.20
2018-08-19T09:46:17.841Z,5.60
2018-08-19T09:47:08.691Z,5.30
2018-08-19T09:48:08.667Z,4.80
2018-08-19T09:49:08.615Z,5.90
2018-08-19T09:50:08.609Z,4.70
2018-08-19T09:51:08.633Z,4.30
2018-08-19T09:52:16.362Z,5.60
2018-08-19T09:53:08.603Z,4.80
2018-08-19T09:54:08.616Z,4.80
2018-08-19T09:55:08.599Z,7.90
2018-08-19T09:56:08.548Z,5.80
2018-08-19T09:57:08.541Z,5.80
2018-08-19T09:58:08.532Z,7.20
2018-08-19T09:59:08.533Z,4.80
2018-08-19T10:00:08.546Z,5.90
2018-08-19T10:01:08.497Z,4.80
2018-08-19T10:02:08.495Z,4.90
2018-08-19T10:03:08.476Z,5.40
2018-08-19T10:04:08.468Z,5.50
2018-08-19T10:05:08.492Z,4.60
2018-08-19T10:06:08.427Z,6.40
2018-08-19T10:07:08.416Z,4.90
2018-08-19T10:08:08.421Z,4.90
2018-08-19T10:09:09.339Z,5.20
2018-08-19T10:10:17.907Z,5.40
2018-08-19T10:11:08.383Z,5.10
2018-08-19T10:12:08.366Z,6.10
2018-08-19T10:13:15.920Z,6.30
2018-08-19T10:14:08.345Z,6.70
2018-08-19T10:15:08.365Z,5.20
2018-08-19T10:16:20.981Z,6.70
2018-08-19T10:17:08.308Z,5.80
2018-08-19T10:18:08.328Z,6.20
2018-08-19T10:19:08.290Z,6.90
2018-08-19T10:20:08.334Z,6.50
2018-08-19T10:21:08.267Z,8.00
2018-08-19T10:22:08.268Z,8.10
2018-08-19T10:23:08.246Z,7.00
2018-08-19T10:24:08.230Z,5.60
2018-08-19T10:25:08.284Z,6.00
2018-08-19T10:26:08.206Z,5.80
2018-08-19T10:27:08.212Z,6.60
2018-08-19T10:28:15.996Z,6.00
2018-08-19T10:29:08.178Z,6.70
2018-08-19T10:30:08.222Z,5.70
2018-08-19T10:31:08.167Z,7.10
2018-08-19T10:32:08.158Z,6.30
2018-08-19T10:33:08.147Z,8.60
2018-08-19T10:34:08.155Z,8.60
2018-08-19T10:35:08.192Z,8.10
2018-08-19T10:36:08.146Z,6.00
2018-08-19T10:37:16.050Z,7.80
2018-08-19T10:38:08.098Z,6.10
2018-08-19T10:39:08.128Z,8.20
2018-08-19T10:40:08.113Z,7.20
2018-08-19T10:41:08.103Z,7.70
2018-08-19T10:42:08.099Z,6.80
2018-08-19T10:43:08.054Z,7.90
2018-08-19T10:44:08.026Z,6.80
2018-08-19T10:45:08.014Z,6.50
2018-08-19T10:46:08.075Z,8.20
2018-08-19T10:47:07.998Z,7.00
2018-08-19T10:48:07.986Z,7.90
2018-08-19T10:49:07.968Z,8.10
2018-08-19T10:50:07.973Z,10.70
2018-08-19T10:51:08.002Z,7.50
2018-08-19T10:52:17.080Z,6.50
2018-08-19T10:53:07.966Z,8.50
2018-08-19T10:54:07.914Z,5.90
2018-08-19T10:55:07.904Z,8.10
2018-08-19T10:56:07.918Z,7.90
2018-08-19T10:57:07.882Z,7.20
2018-08-19T10:58:07.878Z,8.90
2018-08-19T10:59:07.877Z,8.80
2018-08-19T11:00:07.859Z,7.40
2018-08-19T11:01:21.172Z,7.70
2018-08-19T11:02:07.845Z,6.50
2018-08-19T11:03:07.874Z,7.60
2018-08-19T11:04:16.677Z,7.00
2018-08-19T11:05:07.806Z,7.80
2018-08-19T11:06:07.796Z,7.30
2018-08-19T11:07:16.707Z,10.90
2018-08-19T11:08:07.818Z,10.10
2018-08-19T11:09:07.776Z,7.00
2018-08-19T11:10:15.733Z,8.20
2018-08-19T11:11:07.747Z,8.60
2018-08-19T11:12:07.728Z,8.20
2018-08-19T11:13:15.824Z,8.60
2018-08-19T11:14:07.703Z,7.10
2018-08-19T11:15:07.706Z,7.50
2018-08-19T11:16:07.722Z,7.30
2018-08-19T11:17:07.680Z,7.30
2018-08-19T11:18:07.662Z,8.80
2018-08-19T11:19:16.824Z,8.80
2018-08-19T11:20:07.638Z,9.20
2018-08-19T11:21:07.711Z,7.80
2018-08-19T11:22:07.615Z,10.70
2018-08-19T11:23:07.604Z,8.80
2018-08-19T11:24:07.634Z,8.00
2018-08-19T11:25:19.867Z,7.90
2018-08-19T11:26:07.588Z,7.30
2018-08-19T11:27:07.585Z,8.50
2018-08-19T11:28:15.400Z,7.70
2018-08-19T11:29:07.570Z,8.80
2018-08-19T11:30:07.537Z,7.60
2018-08-19T11:31:15.444Z,8.80
2018-08-19T11:32:07.514Z,8.20
2018-08-19T11:33:07.540Z,5.90
2018-08-19T11:34:21.009Z,8.90
2018-08-19T11:35:07.482Z,8.50
2018-08-19T11:36:07.471Z,7.60
2018-08-19T11:37:07.454Z,9.10
2018-08-19T11:38:07.448Z,9.00
2018-08-19T11:39:07.493Z,8.10
2018-08-19T11:40:07.427Z,9.10
2018-08-19T11:41:07.408Z,7.60
2018-08-19T11:42:07.418Z,7.80
2018-08-19T11:43:15.550Z,10.80
2018-08-19T11:44:07.429Z,8.20
2018-08-19T11:45:07.392Z,7.40
2018-08-19T11:46:07.425Z,8.80
2018-08-19T11:47:07.364Z,9.90
2018-08-19T11:48:07.363Z,9.10
2018-08-19T11:49:07.370Z,9.50
2018-08-19T11:50:07.335Z,8.30
2018-08-19T11:51:07.364Z,7.50
2018-08-19T11:52:07.310Z,10.60
2018-08-19T11:53:07.303Z,11.50
2018-08-19T11:54:07.289Z,11.30
2018-08-19T11:55:07.303Z,10.10
2018-08-19T11:56:07.336Z,8.50
2018-08-19T11:57:07.351Z,9.60
2018-08-19T11:58:15.068Z,10.80
2018-08-19T11:59:07.240Z,9.00
2018-08-19T12:00:07.241Z,10.20
2018-08-19T12:01:16.619Z,9.30
2018-08-19T12:02:07.277Z,10.60
2018-08-19T12:03:07.203Z,9.20
2018-08-19T12:04:07.191Z,10.80
2018-08-19T12:05:07.209Z,11.30
2018-08-19T12:06:07.220Z,9.40
2018-08-19T12:07:07.163Z,8.60
2018-08-19T12:08:07.145Z,7.70
2018-08-19T12:09:07.135Z,8.20
2018-08-19T12:10:15.129Z,9.10
2018-08-19T12:11:07.159Z,9.20
2018-08-19T12:12:07.101Z,9.40
2018-08-19T12:13:14.669Z,9.80
2018-08-19T12:14:07.083Z,10.20
2018-08-19T12:15:07.072Z,8.80
2018-08-19T12:16:16.250Z,9.30
2018-08-19T12:17:07.163Z,9.30
2018-08-19T12:18:07.035Z,8.90
2018-08-19T12:19:15.249Z,8.10
2018-08-19T12:20:07.028Z,8.70
2018-08-19T12:21:07.011Z,10.30
2018-08-19T12:22:16.304Z,9.70
2018-08-19T12:23:06.981Z,10.80
2018-08-19T12:24:07.017Z,8.40
2018-08-19T12:25:14.817Z,7.80
2018-08-19T12:26:06.954Z,9.50
2018-08-19T12:27:06.955Z,9.30
2018-08-19T12:28:14.855Z,9.60
2018-08-19T12:29:06.979Z,9.70
2018-08-19T12:30:06.920Z,8.10
2018-08-19T12:31:06.933Z,8.30
2018-08-19T12:32:06.903Z,10.00
2018-08-19T12:33:07.003Z,9.10
2018-08-19T12:34:14.899Z,9.20
2018-08-19T12:35:06.935Z,9.30
2018-08-19T12:36:06.855Z,11.10
2018-08-19T12:37:20.140Z,11.80
2018-08-19T12:38:06.847Z,10.40
2018-08-19T12:39:06.843Z,8.70
2018-08-19T12:40:06.847Z,11.30
2018-08-19T12:41:06.851Z,7.90
2018-08-19T12:42:06.811Z,9.10
2018-08-19T12:43:16.007Z,9.20
2018-08-19T12:44:06.785Z,7.90
2018-08-19T12:45:06.765Z,10.70
2018-08-19T12:46:16.055Z,7.70
2018-08-19T12:47:06.740Z,9.90
2018-08-19T12:48:06.768Z,9.50
2018-08-19T12:49:14.541Z,8.60
2018-08-19T12:50:06.720Z,8.40
2018-08-19T12:51:06.704Z,8.40
2018-08-19T12:52:16.093Z,11.90
2018-08-19T12:53:06.684Z,10.70
2018-08-19T12:54:06.671Z,10.10
2018-08-19T12:55:06.709Z,10.70
2018-08-19T12:56:06.723Z,7.90
2018-08-19T12:57:06.649Z,8.90
2018-08-19T12:58:14.608Z,7.80
2018-08-19T12:59:06.622Z,9.80
2018-08-19T13:00:06.651Z,10.50
2018-08-19T13:01:15.147Z,8.00
2018-08-19T13:02:06.592Z,8.00
2018-08-19T13:03:06.577Z,8.60
2018-08-19T13:04:15.710Z,8.90
2018-08-19T13:05:06.551Z,7.90
2018-08-19T13:06:06.568Z,8.60
2018-08-19T13:07:06.533Z,9.20
2018-08-19T13:08:06.570Z,8.80